sensor_id;sensor_type;location;lat;lon;timestamp;P1;durP1;ratioP1;P2;durP2;ratioP2
20894;SDS011;10607;42.066;24.742;2023-06-14T00:01:45;4.60;;;4.00;;
20894;SDS011;10607;42.066;24.742;2023-06-14T00:04:11;6.45;;;4.57;;
20894;SDS011;10607;42.066;24.742;2023-06-14T00:06:36;6.63;;;5.20;;
20894;SDS011;10607;42.066;24.742;2023-06-14T00:09:01;7.63;;;5.20;;
20894;SDS011;10607;42.066;24.742;2023-06-14T00:11:26;7.80;;;5.53;;
20894;SDS011;10607;42.066;24.742;2023-06-14T00:13:52;8.20;;;5.57;;
20894;SDS011;10607;42.066;24.742;2023-06-14T00:16:17;9.02;;;5.30;;
20894;SDS011;10607;42.066;24.742;2023-06-14T00:18:44;13.27;;;5.78;;
20894;SDS011;10607;42.066;24.742;2023-06-14T00:21:09;6.20;;;5.57;;
20894;SDS011;10607;42.066;24.742;2023-06-14T00:23:35;7.18;;;5.13;;
20894;SDS011;10607;42.066;24.742;2023-06-14T00:26:00;6.25;;;5.22;;
20894;SDS011;10607;42.066;24.742;2023-06-14T00:28:25;6.95;;;5.75;;
20894;SDS011;10607;42.066;24.742;2023-06-14T00:30:51;8.05;;;5.50;;
20894;SDS011;10607;42.066;24.742;2023-06-14T00:33:16;7.07;;;6.00;;
20894;SDS011;10607;42.066;24.742;2023-06-14T00:35:41;6.85;;;5.45;;
20894;SDS011;10607;42.066;24.742;2023-06-14T00:38:06;7.05;;;6.07;;
20894;SDS011;10607;42.066;24.742;2023-06-14T00:40:32;8.82;;;6.07;;
20894;SDS011;10607;42.066;24.742;2023-06-14T00:42:57;7.05;;;5.75;;
20894;SDS011;10607;42.066;24.742;2023-06-14T00:45:22;9.30;;;7.07;;
20894;SDS011;10607;42.066;24.742;2023-06-14T00:47:48;8.07;;;6.22;;
20894;SDS011;10607;42.066;24.742;2023-06-14T00:50:15;10.30;;;6.50;;
20894;SDS011;10607;42.066;24.742;2023-06-14T00:52:41;7.22;;;5.97;;
20894;SDS011;10607;42.066;24.742;2023-06-14T00:55:06;8.95;;;6.18;;
20894;SDS011;10607;42.066;24.742;2023-06-14T00:57:32;6.68;;;5.63;;
20894;SDS011;10607;42.066;24.742;2023-06-14T00:59:57;7.18;;;6.18;;
20894;SDS011;10607;42.066;24.742;2023-06-14T01:02:23;8.73;;;6.30;;
20894;SDS011;10607;42.066;24.742;2023-06-14T01:04:49;9.40;;;5.95;;
20894;SDS011;10607;42.066;24.742;2023-06-14T01:15:01;8.15;;;6.25;;
20894;SDS011;10607;42.066;24.742;2023-06-14T01:17:27;10.93;;;5.97;;
20894;SDS011;10607;42.066;24.742;2023-06-14T01:19:57;8.27;;;6.10;;
20894;SDS011;10607;42.066;24.742;2023-06-14T01:22:24;12.50;;;6.35;;
20894;SDS011;10607;42.066;24.742;2023-06-14T01:24:49;12.52;;;6.20;;
20894;SDS011;10607;42.066;24.742;2023-06-14T01:27:15;8.48;;;7.00;;
20894;SDS011;10607;42.066;24.742;2023-06-14T01:29:41;9.40;;;6.55;;
20894;SDS011;10607;42.066;24.742;2023-06-14T01:32:10;9.13;;;5.82;;
20894;SDS011;10607;42.066;24.742;2023-06-14T01:34:36;9.15;;;6.28;;
20894;SDS011;10607;42.066;24.742;2023-06-14T01:37:01;7.68;;;5.97;;
20894;SDS011;10607;42.066;24.742;2023-06-14T01:39:27;8.85;;;5.55;;
20894;SDS011;10607;42.066;24.742;2023-06-14T01:41:53;8.73;;;6.53;;
20894;SDS011;10607;42.066;24.742;2023-06-14T01:44:18;7.22;;;5.68;;
20894;SDS011;10607;42.066;24.742;2023-06-14T01:46:44;6.95;;;5.75;;
20894;SDS011;10607;42.066;24.742;2023-06-14T01:49:10;10.80;;;5.70;;
20894;SDS011;10607;42.066;24.742;2023-06-14T01:51:35;10.27;;;5.45;;
20894;SDS011;10607;42.066;24.742;2023-06-14T01:54:01;6.90;;;5.90;;
20894;SDS011;10607;42.066;24.742;2023-06-14T01:56:26;10.05;;;6.00;;
20894;SDS011;10607;42.066;24.742;2023-06-14T01:58:52;8.55;;;5.75;;
20894;SDS011;10607;42.066;24.742;2023-06-14T02:01:18;7.40;;;6.00;;
20894;SDS011;10607;42.066;24.742;2023-06-14T02:03:44;9.23;;;5.78;;
20894;SDS011;10607;42.066;24.742;2023-06-14T02:06:10;7.38;;;6.63;;
20894;SDS011;10607;42.066;24.742;2023-06-14T02:08:35;8.63;;;6.13;;
20894;SDS011;10607;42.066;24.742;2023-06-14T02:11:00;8.63;;;5.93;;
20894;SDS011;10607;42.066;24.742;2023-06-14T02:13:26;11.02;;;6.03;;
20894;SDS011;10607;42.066;24.742;2023-06-14T02:15:51;8.55;;;6.22;;
20894;SDS011;10607;42.066;24.742;2023-06-14T02:18:19;9.60;;;5.88;;
20894;SDS011;10607;42.066;24.742;2023-06-14T02:20:45;9.05;;;6.80;;
20894;SDS011;10607;42.066;24.742;2023-06-14T02:23:10;9.07;;;6.68;;
20894;SDS011;10607;42.066;24.742;2023-06-14T02:25:35;8.38;;;7.05;;
20894;SDS011;10607;42.066;24.742;2023-06-14T02:28:01;7.47;;;6.55;;
20894;SDS011;10607;42.066;24.742;2023-06-14T02:30:26;7.32;;;6.38;;
20894;SDS011;10607;42.066;24.742;2023-06-14T02:32:51;8.23;;;6.47;;
20894;SDS011;10607;42.066;24.742;2023-06-14T02:35:18;11.98;;;7.07;;
20894;SDS011;10607;42.066;24.742;2023-06-14T02:37:45;12.07;;;7.30;;
20894;SDS011;10607;42.066;24.742;2023-06-14T02:40:11;12.38;;;7.03;;
20894;SDS011;10607;42.066;24.742;2023-06-14T02:42:36;10.43;;;7.22;;
20894;SDS011;10607;42.066;24.742;2023-06-14T02:45:01;7.60;;;6.90;;
20894;SDS011;10607;42.066;24.742;2023-06-14T02:47:28;12.15;;;7.55;;
20894;SDS011;10607;42.066;24.742;2023-06-14T02:49:54;10.48;;;7.20;;
20894;SDS011;10607;42.066;24.742;2023-06-14T02:52:19;9.10;;;7.57;;
20894;SDS011;10607;42.066;24.742;2023-06-14T02:54:45;10.38;;;7.53;;
20894;SDS011;10607;42.066;24.742;2023-06-14T02:57:12;8.13;;;7.20;;
20894;SDS011;10607;42.066;24.742;2023-06-14T02:59:37;8.95;;;7.45;;
20894;SDS011;10607;42.066;24.742;2023-06-14T03:02:02;9.88;;;7.90;;
20894;SDS011;10607;42.066;24.742;2023-06-14T03:04:28;14.05;;;7.57;;
20894;SDS011;10607;42.066;24.742;2023-06-14T03:06:54;10.57;;;6.95;;
20894;SDS011;10607;42.066;24.742;2023-06-14T03:09:19;12.40;;;7.78;;
20894;SDS011;10607;42.066;24.742;2023-06-14T03:11:45;11.15;;;7.78;;
20894;SDS011;10607;42.066;24.742;2023-06-14T03:14:10;10.85;;;8.02;;
20894;SDS011;10607;42.066;24.742;2023-06-14T03:16:36;10.43;;;7.68;;
20894;SDS011;10607;42.066;24.742;2023-06-14T03:19:02;9.40;;;7.63;;
20894;SDS011;10607;42.066;24.742;2023-06-14T03:21:27;11.75;;;8.32;;
20894;SDS011;10607;42.066;24.742;2023-06-14T03:23:53;15.60;;;7.60;;
20894;SDS011;10607;42.066;24.742;2023-06-14T03:26:19;12.00;;;7.78;;
20894;SDS011;10607;42.066;24.742;2023-06-14T03:28:47;11.95;;;7.75;;
20894;SDS011;10607;42.066;24.742;2023-06-14T03:31:13;8.63;;;7.60;;
20894;SDS011;10607;42.066;24.742;2023-06-14T03:33:39;9.88;;;7.60;;
20894;SDS011;10607;42.066;24.742;2023-06-14T03:36:05;12.95;;;8.63;;
20894;SDS011;10607;42.066;24.742;2023-06-14T03:38:30;11.38;;;8.57;;
20894;SDS011;10607;42.066;24.742;2023-06-14T03:40:56;10.07;;;8.18;;
20894;SDS011;10607;42.066;24.742;2023-06-14T03:43:21;10.20;;;7.90;;
20894;SDS011;10607;42.066;24.742;2023-06-14T03:45:46;9.88;;;7.93;;
20894;SDS011;10607;42.066;24.742;2023-06-14T03:48:11;13.43;;;8.20;;
20894;SDS011;10607;42.066;24.742;2023-06-14T03:50:37;11.70;;;7.78;;
20894;SDS011;10607;42.066;24.742;2023-06-14T03:53:03;12.57;;;7.95;;
20894;SDS011;10607;42.066;24.742;2023-06-14T03:55:28;11.70;;;8.32;;
20894;SDS011;10607;42.066;24.742;2023-06-14T03:57:56;12.68;;;8.30;;
20894;SDS011;10607;42.066;24.742;2023-06-14T04:00:21;14.05;;;8.13;;
20894;SDS011;10607;42.066;24.742;2023-06-14T04:02:47;8.95;;;7.95;;
20894;SDS011;10607;42.066;24.742;2023-06-14T04:05:12;8.27;;;7.40;;
20894;SDS011;10607;42.066;24.742;2023-06-14T04:07:38;15.00;;;7.68;;
20894;SDS011;10607;42.066;24.742;2023-06-14T04:10:05;9.10;;;7.47;;
20894;SDS011;10607;42.066;24.742;2023-06-14T04:12:30;11.48;;;7.43;;
20894;SDS011;10607;42.066;24.742;2023-06-14T04:14:56;11.60;;;7.50;;
20894;SDS011;10607;42.066;24.742;2023-06-14T04:17:21;11.73;;;7.75;;
20894;SDS011;10607;42.066;24.742;2023-06-14T04:19:46;10.40;;;8.30;;
20894;SDS011;10607;42.066;24.742;2023-06-14T04:22:12;12.43;;;8.82;;
20894;SDS011;10607;42.066;24.742;2023-06-14T04:24:38;10.98;;;8.15;;
20894;SDS011;10607;42.066;24.742;2023-06-14T04:27:03;13.25;;;8.75;;
20894;SDS011;10607;42.066;24.742;2023-06-14T04:29:28;13.38;;;8.45;;
20894;SDS011;10607;42.066;24.742;2023-06-14T04:31:54;13.75;;;9.65;;
20894;SDS011;10607;42.066;24.742;2023-06-14T04:34:24;15.68;;;9.77;;
20894;SDS011;10607;42.066;24.742;2023-06-14T04:36:55;14.35;;;10.38;;
20894;SDS011;10607;42.066;24.742;2023-06-14T04:39:21;15.80;;;12.50;;
20894;SDS011;10607;42.066;24.742;2023-06-14T04:41:47;18.88;;;12.20;;
20894;SDS011;10607;42.066;24.742;2023-06-14T04:44:12;14.65;;;12.00;;
20894;SDS011;10607;42.066;24.742;2023-06-14T04:46:38;19.90;;;12.18;;
20894;SDS011;10607;42.066;24.742;2023-06-14T04:49:11;16.90;;;12.55;;
20894;SDS011;10607;42.066;24.742;2023-06-14T04:51:40;17.02;;;12.77;;
20894;SDS011;10607;42.066;24.742;2023-06-14T04:54:06;19.42;;;12.77;;
20894;SDS011;10607;42.066;24.742;2023-06-14T04:56:35;28.33;;;13.48;;
20894;SDS011;10607;42.066;24.742;2023-06-14T04:59:02;20.83;;;12.63;;
20894;SDS011;10607;42.066;24.742;2023-06-14T05:01:29;17.50;;;12.50;;
20894;SDS011;10607;42.066;24.742;2023-06-14T05:03:55;17.27;;;12.45;;
20894;SDS011;10607;42.066;24.742;2023-06-14T05:06:20;19.00;;;13.10;;
20894;SDS011;10607;42.066;24.742;2023-06-14T05:08:46;26.02;;;12.27;;
20894;SDS011;10607;42.066;24.742;2023-06-14T05:11:11;14.70;;;12.15;;
20894;SDS011;10607;42.066;24.742;2023-06-14T05:13:37;17.45;;;12.82;;
20894;SDS011;10607;42.066;24.742;2023-06-14T05:16:02;16.85;;;12.00;;
20894;SDS011;10607;42.066;24.742;2023-06-14T05:18:28;16.38;;;12.80;;
20894;SDS011;10607;42.066;24.742;2023-06-14T05:20:53;15.13;;;12.23;;
20894;SDS011;10607;42.066;24.742;2023-06-14T05:23:19;19.23;;;12.40;;
20894;SDS011;10607;42.066;24.742;2023-06-14T05:25:44;20.58;;;12.15;;
20894;SDS011;10607;42.066;24.742;2023-06-14T05:28:10;18.00;;;12.40;;
20894;SDS011;10607;42.066;24.742;2023-06-14T05:30:37;15.63;;;12.13;;
20894;SDS011;10607;42.066;24.742;2023-06-14T05:33:02;15.10;;;12.80;;
20894;SDS011;10607;42.066;24.742;2023-06-14T05:35:28;18.48;;;12.32;;
20894;SDS011;10607;42.066;24.742;2023-06-14T05:37:54;19.13;;;12.38;;
20894;SDS011;10607;42.066;24.742;2023-06-14T05:40:19;18.27;;;12.43;;
20894;SDS011;10607;42.066;24.742;2023-06-14T05:42:45;16.60;;;12.02;;
20894;SDS011;10607;42.066;24.742;2023-06-14T05:45:10;16.42;;;12.68;;
20894;SDS011;10607;42.066;24.742;2023-06-14T05:47:36;19.33;;;12.73;;
20894;SDS011;10607;42.066;24.742;2023-06-14T05:50:01;22.52;;;12.98;;
20894;SDS011;10607;42.066;24.742;2023-06-14T05:52:27;18.40;;;12.88;;
20894;SDS011;10607;42.066;24.742;2023-06-14T05:54:53;16.15;;;12.35;;
20894;SDS011;10607;42.066;24.742;2023-06-14T05:57:18;22.75;;;13.25;;
20894;SDS011;10607;42.066;24.742;2023-06-14T05:59:43;19.60;;;11.75;;
20894;SDS011;10607;42.066;24.742;2023-06-14T06:02:09;18.90;;;11.48;;
20894;SDS011;10607;42.066;24.742;2023-06-14T06:04:34;18.98;;;11.13;;
20894;SDS011;10607;42.066;24.742;2023-06-14T06:06:59;21.30;;;12.32;;
20894;SDS011;10607;42.066;24.742;2023-06-14T06:09:25;19.02;;;13.02;;
20894;SDS011;10607;42.066;24.742;2023-06-14T06:11:51;14.02;;;12.02;;
20894;SDS011;10607;42.066;24.742;2023-06-14T06:14:16;17.80;;;12.68;;
20894;SDS011;10607;42.066;24.742;2023-06-14T06:16:41;13.15;;;11.18;;
20894;SDS011;10607;42.066;24.742;2023-06-14T06:19:07;13.95;;;10.75;;
20894;SDS011;10607;42.066;24.742;2023-06-14T06:21:32;16.58;;;11.18;;
20894;SDS011;10607;42.066;24.742;2023-06-14T06:23:57;18.13;;;10.82;;
20894;SDS011;10607;42.066;24.742;2023-06-14T06:26:22;14.75;;;10.00;;
20894;SDS011;10607;42.066;24.742;2023-06-14T06:28:48;13.52;;;11.52;;
20894;SDS011;10607;42.066;24.742;2023-06-14T06:31:13;14.63;;;10.90;;
20894;SDS011;10607;42.066;24.742;2023-06-14T06:33:38;14.75;;;9.95;;
20894;SDS011;10607;42.066;24.742;2023-06-14T06:36:05;15.63;;;9.70;;
20894;SDS011;10607;42.066;24.742;2023-06-14T06:38:30;14.05;;;8.43;;
20894;SDS011;10607;42.066;24.742;2023-06-14T06:40:55;12.90;;;7.60;;
20894;SDS011;10607;42.066;24.742;2023-06-14T06:43:21;13.48;;;7.95;;
20894;SDS011;10607;42.066;24.742;2023-06-14T06:45:46;11.45;;;8.18;;
20894;SDS011;10607;42.066;24.742;2023-06-14T06:48:12;12.40;;;8.60;;
20894;SDS011;10607;42.066;24.742;2023-06-14T06:50:37;11.52;;;7.85;;
20894;SDS011;10607;42.066;24.742;2023-06-14T06:53:03;14.50;;;8.32;;
20894;SDS011;10607;42.066;24.742;2023-06-14T06:55:28;11.23;;;9.20;;
20894;SDS011;10607;42.066;24.742;2023-06-14T06:57:54;14.52;;;8.63;;
20894;SDS011;10607;42.066;24.742;2023-06-14T07:00:20;10.55;;;8.13;;
20894;SDS011;10607;42.066;24.742;2023-06-14T07:02:45;8.63;;;7.72;;
20894;SDS011;10607;42.066;24.742;2023-06-14T07:05:10;12.45;;;8.02;;
20894;SDS011;10607;42.066;24.742;2023-06-14T07:07:36;11.07;;;7.85;;
20894;SDS011;10607;42.066;24.742;2023-06-14T07:10:01;9.77;;;8.70;;
20894;SDS011;10607;42.066;24.742;2023-06-14T07:12:29;18.42;;;8.85;;
20894;SDS011;10607;42.066;24.742;2023-06-14T07:14:55;13.25;;;9.40;;
20894;SDS011;10607;42.066;24.742;2023-06-14T07:17:21;9.90;;;8.45;;
20894;SDS011;10607;42.066;24.742;2023-06-14T07:19:46;12.45;;;8.27;;
20894;SDS011;10607;42.066;24.742;2023-06-14T07:22:11;11.23;;;8.60;;
20894;SDS011;10607;42.066;24.742;2023-06-14T07:24:37;11.07;;;8.75;;
20894;SDS011;10607;42.066;24.742;2023-06-14T07:27:02;12.43;;;8.85;;
20894;SDS011;10607;42.066;24.742;2023-06-14T07:29:29;19.25;;;10.63;;
20894;SDS011;10607;42.066;24.742;2023-06-14T07:31:54;13.52;;;9.63;;
20894;SDS011;10607;42.066;24.742;2023-06-14T07:34:19;11.57;;;9.52;;
20894;SDS011;10607;42.066;24.742;2023-06-14T07:36:45;16.17;;;8.77;;
20894;SDS011;10607;42.066;24.742;2023-06-14T07:39:11;16.95;;;8.98;;
20894;SDS011;10607;42.066;24.742;2023-06-14T07:41:36;13.45;;;9.13;;
20894;SDS011;10607;42.066;24.742;2023-06-14T07:44:02;10.75;;;9.00;;
20894;SDS011;10607;42.066;24.742;2023-06-14T07:46:27;16.00;;;9.05;;
20894;SDS011;10607;42.066;24.742;2023-06-14T07:48:52;16.75;;;10.85;;
20894;SDS011;10607;42.066;24.742;2023-06-14T07:51:19;15.68;;;9.85;;
20894;SDS011;10607;42.066;24.742;2023-06-14T07:53:44;12.93;;;9.60;;
20894;SDS011;10607;42.066;24.742;2023-06-14T07:56:11;14.15;;;9.88;;
20894;SDS011;10607;42.066;24.742;2023-06-14T07:58:36;11.45;;;8.77;;
20894;SDS011;10607;42.066;24.742;2023-06-14T08:01:01;11.35;;;9.18;;
20894;SDS011;10607;42.066;24.742;2023-06-14T08:03:31;11.45;;;8.75;;
20894;SDS011;10607;42.066;24.742;2023-06-14T08:05:56;16.05;;;10.65;;
20894;SDS011;10607;42.066;24.742;2023-06-14T08:08:21;12.57;;;10.10;;
20894;SDS011;10607;42.066;24.742;2023-06-14T08:10:47;15.07;;;10.38;;
20894;SDS011;10607;42.066;24.742;2023-06-14T08:13:12;12.25;;;10.55;;
20894;SDS011;10607;42.066;24.742;2023-06-14T08:15:38;19.45;;;12.60;;
20894;SDS011;10607;42.066;24.742;2023-06-14T08:18:03;18.33;;;13.18;;
20894;SDS011;10607;42.066;24.742;2023-06-14T08:20:29;16.48;;;13.85;;
20894;SDS011;10607;42.066;24.742;2023-06-14T08:22:55;16.15;;;12.55;;
20894;SDS011;10607;42.066;24.742;2023-06-14T08:25:22;15.18;;;11.98;;
20894;SDS011;10607;42.066;24.742;2023-06-14T08:27:47;17.55;;;12.02;;
20894;SDS011;10607;42.066;24.742;2023-06-14T08:30:12;18.50;;;11.63;;
20894;SDS011;10607;42.066;24.742;2023-06-14T08:32:38;20.63;;;13.85;;
20894;SDS011;10607;42.066;24.742;2023-06-14T08:35:03;19.40;;;13.07;;
20894;SDS011;10607;42.066;24.742;2023-06-14T08:37:31;14.50;;;12.77;;
20894;SDS011;10607;42.066;24.742;2023-06-14T08:39:56;18.35;;;13.32;;
20894;SDS011;10607;42.066;24.742;2023-06-14T08:42:21;19.15;;;12.73;;
20894;SDS011;10607;42.066;24.742;2023-06-14T08:44:49;20.08;;;13.40;;
20894;SDS011;10607;42.066;24.742;2023-06-14T08:47:14;18.17;;;12.07;;
20894;SDS011;10607;42.066;24.742;2023-06-14T08:49:40;20.05;;;13.07;;
20894;SDS011;10607;42.066;24.742;2023-06-14T08:52:10;30.38;;;12.98;;
20894;SDS011;10607;42.066;24.742;2023-06-14T08:54:35;14.07;;;11.95;;
20894;SDS011;10607;42.066;24.742;2023-06-14T08:57:10;19.83;;;11.95;;
20894;SDS011;10607;42.066;24.742;2023-06-14T08:59:37;18.55;;;11.65;;
20894;SDS011;10607;42.066;24.742;2023-06-14T09:02:04;15.93;;;11.13;;
20894;SDS011;10607;42.066;24.742;2023-06-14T09:04:30;20.08;;;12.50;;
20894;SDS011;10607;42.066;24.742;2023-06-14T09:06:58;17.15;;;11.65;;
20894;SDS011;10607;42.066;24.742;2023-06-14T09:09:24;13.52;;;10.43;;
20894;SDS011;10607;42.066;24.742;2023-06-14T09:11:50;19.75;;;10.50;;
20894;SDS011;10607;42.066;24.742;2023-06-14T09:14:17;14.15;;;10.95;;
20894;SDS011;10607;42.066;24.742;2023-06-14T09:16:42;20.17;;;12.55;;
20894;SDS011;10607;42.066;24.742;2023-06-14T09:19:08;12.65;;;11.35;;
20894;SDS011;10607;42.066;24.742;2023-06-14T09:21:33;15.20;;;11.38;;
20894;SDS011;10607;42.066;24.742;2023-06-14T09:24:01;14.18;;;10.95;;
20894;SDS011;10607;42.066;24.742;2023-06-14T09:26:26;18.90;;;12.30;;
20894;SDS011;10607;42.066;24.742;2023-06-14T09:28:52;15.73;;;11.93;;
20894;SDS011;10607;42.066;24.742;2023-06-14T09:31:18;15.23;;;11.75;;
20894;SDS011;10607;42.066;24.742;2023-06-14T09:33:44;15.02;;;12.32;;
20894;SDS011;10607;42.066;24.742;2023-06-14T09:36:16;21.00;;;11.90;;
20894;SDS011;10607;42.066;24.742;2023-06-14T09:38:44;15.85;;;11.88;;
20894;SDS011;10607;42.066;24.742;2023-06-14T09:41:16;17.70;;;11.88;;
20894;SDS011;10607;42.066;24.742;2023-06-14T09:43:41;20.50;;;12.43;;
20894;SDS011;10607;42.066;24.742;2023-06-14T09:46:07;16.27;;;13.25;;
20894;SDS011;10607;42.066;24.742;2023-06-14T09:48:33;21.20;;;13.27;;
20894;SDS011;10607;42.066;24.742;2023-06-14T09:50:58;18.77;;;15.30;;
20894;SDS011;10607;42.066;24.742;2023-06-14T09:53:24;26.10;;;16.85;;
20894;SDS011;10607;42.066;24.742;2023-06-14T09:55:50;29.52;;;17.05;;
20894;SDS011;10607;42.066;24.742;2023-06-14T09:58:17;22.80;;;17.02;;
20894;SDS011;10607;42.066;24.742;2023-06-14T10:00:44;27.23;;;16.33;;
20894;SDS011;10607;42.066;24.742;2023-06-14T10:05:35;23.63;;;16.67;;
20894;SDS011;10607;42.066;24.742;2023-06-14T10:08:04;24.48;;;16.95;;
20894;SDS011;10607;42.066;24.742;2023-06-14T10:10:29;22.63;;;17.60;;
20894;SDS011;10607;42.066;24.742;2023-06-14T10:12:55;20.73;;;16.33;;
20894;SDS011;10607;42.066;24.742;2023-06-14T10:15:28;22.00;;;17.50;;
20894;SDS011;10607;42.066;24.742;2023-06-14T10:17:58;24.90;;;18.42;;
20894;SDS011;10607;42.066;24.742;2023-06-14T10:20:28;21.85;;;18.42;;
20894;SDS011;10607;42.066;24.742;2023-06-14T10:22:58;18.17;;;16.23;;
20894;SDS011;10607;42.066;24.742;2023-06-14T10:25:28;19.30;;;14.75;;
20894;SDS011;10607;42.066;24.742;2023-06-14T10:28:02;21.33;;;13.60;;
20894;SDS011;10607;42.066;24.742;2023-06-14T10:30:27;15.43;;;13.82;;
20894;SDS011;10607;42.066;24.742;2023-06-14T10:33:05;19.58;;;14.07;;
20894;SDS011;10607;42.066;24.742;2023-06-14T10:35:31;18.48;;;14.27;;
20894;SDS011;10607;42.066;24.742;2023-06-14T10:38:06;15.65;;;13.43;;
20894;SDS011;10607;42.066;24.742;2023-06-14T10:40:31;16.88;;;13.23;;
20894;SDS011;10607;42.066;24.742;2023-06-14T10:42:57;15.68;;;12.10;;
20894;SDS011;10607;42.066;24.742;2023-06-14T10:45:22;14.70;;;11.60;;
20894;SDS011;10607;42.066;24.742;2023-06-14T10:47:48;12.95;;;11.50;;
20894;SDS011;10607;42.066;24.742;2023-06-14T10:50:14;13.52;;;12.13;;
20894;SDS011;10607;42.066;24.742;2023-06-14T10:52:42;15.90;;;12.40;;
20894;SDS011;10607;42.066;24.742;2023-06-14T10:55:14;11.88;;;10.77;;
20894;SDS011;10607;42.066;24.742;2023-06-14T10:57:44;14.32;;;12.05;;
20894;SDS011;10607;42.066;24.742;2023-06-14T11:00:16;15.07;;;11.43;;
20894;SDS011;10607;42.066;24.742;2023-06-14T11:05:08;17.65;;;11.32;;
20894;SDS011;10607;42.066;24.742;2023-06-14T11:12:50;13.63;;;12.23;;
20894;SDS011;10607;42.066;24.742;2023-06-14T11:15:18;16.23;;;12.60;;
20894;SDS011;10607;42.066;24.742;2023-06-14T11:17:50;15.85;;;11.88;;
20894;SDS011;10607;42.066;24.742;2023-06-14T11:20:16;14.35;;;12.85;;
20894;SDS011;10607;42.066;24.742;2023-06-14T11:22:42;13.35;;;11.98;;
20894;SDS011;10607;42.066;24.742;2023-06-14T11:25:13;14.15;;;12.65;;
20894;SDS011;10607;42.066;24.742;2023-06-14T11:27:41;16.80;;;13.73;;
20894;SDS011;10607;42.066;24.742;2023-06-14T11:30:07;17.88;;;12.93;;
20894;SDS011;10607;42.066;24.742;2023-06-14T11:32:33;15.52;;;14.00;;
20894;SDS011;10607;42.066;24.742;2023-06-14T11:34:58;18.27;;;13.93;;
20894;SDS011;10607;42.066;24.742;2023-06-14T11:37:25;19.73;;;13.98;;
20894;SDS011;10607;42.066;24.742;2023-06-14T11:39:51;15.90;;;14.13;;
20894;SDS011;10607;42.066;24.742;2023-06-14T11:42:16;17.95;;;14.07;;
20894;SDS011;10607;42.066;24.742;2023-06-14T11:44:41;17.67;;;14.85;;
20894;SDS011;10607;42.066;24.742;2023-06-14T11:47:07;20.55;;;14.18;;
20894;SDS011;10607;42.066;24.742;2023-06-14T11:49:38;18.05;;;14.18;;
20894;SDS011;10607;42.066;24.742;2023-06-14T11:52:04;18.33;;;14.38;;
20894;SDS011;10607;42.066;24.742;2023-06-14T11:54:30;16.50;;;14.80;;
20894;SDS011;10607;42.066;24.742;2023-06-14T11:56:55;16.20;;;14.00;;
20894;SDS011;10607;42.066;24.742;2023-06-14T11:59:20;15.68;;;13.13;;
20894;SDS011;10607;42.066;24.742;2023-06-14T12:01:47;18.17;;;14.73;;
20894;SDS011;10607;42.066;24.742;2023-06-14T12:04:12;17.38;;;15.07;;
20894;SDS011;10607;42.066;24.742;2023-06-14T12:06:37;17.20;;;14.23;;
20894;SDS011;10607;42.066;24.742;2023-06-14T12:09:05;16.92;;;13.25;;
20894;SDS011;10607;42.066;24.742;2023-06-14T12:11:37;15.60;;;13.75;;
20894;SDS011;10607;42.066;24.742;2023-06-14T12:14:06;20.20;;;13.10;;
20894;SDS011;10607;42.066;24.742;2023-06-14T12:16:33;15.65;;;13.60;;
20894;SDS011;10607;42.066;24.742;2023-06-14T12:19:17;15.75;;;13.38;;
20894;SDS011;10607;42.066;24.742;2023-06-14T12:21:43;19.83;;;12.90;;
20894;SDS011;10607;42.066;24.742;2023-06-14T12:24:09;14.73;;;13.02;;
20894;SDS011;10607;42.066;24.742;2023-06-14T12:26:40;14.95;;;12.82;;
20894;SDS011;10607;42.066;24.742;2023-06-14T12:29:06;16.73;;;12.13;;
20894;SDS011;10607;42.066;24.742;2023-06-14T12:31:32;13.88;;;12.25;;
20894;SDS011;10607;42.066;24.742;2023-06-14T12:33:57;13.25;;;11.48;;
20894;SDS011;10607;42.066;24.742;2023-06-14T12:36:22;12.95;;;11.45;;
20894;SDS011;10607;42.066;24.742;2023-06-14T12:38:48;21.55;;;12.30;;
20894;SDS011;10607;42.066;24.742;2023-06-14T12:41:13;14.95;;;12.32;;
20894;SDS011;10607;42.066;24.742;2023-06-14T12:43:41;13.00;;;11.65;;
20894;SDS011;10607;42.066;24.742;2023-06-14T12:46:07;14.45;;;11.00;;
20894;SDS011;10607;42.066;24.742;2023-06-14T12:48:32;14.18;;;11.02;;
20894;SDS011;10607;42.066;24.742;2023-06-14T12:50:59;12.60;;;11.27;;
20894;SDS011;10607;42.066;24.742;2023-06-14T12:53:24;14.52;;;11.35;;
20894;SDS011;10607;42.066;24.742;2023-06-14T12:55:50;14.32;;;10.73;;
20894;SDS011;10607;42.066;24.742;2023-06-14T12:58:15;13.10;;;11.77;;
20894;SDS011;10607;42.066;24.742;2023-06-14T13:00:42;18.67;;;11.13;;
20894;SDS011;10607;42.066;24.742;2023-06-14T13:03:07;15.45;;;12.18;;
20894;SDS011;10607;42.066;24.742;2023-06-14T13:05:33;21.60;;;12.85;;
20894;SDS011;10607;42.066;24.742;2023-06-14T13:07:58;14.88;;;12.57;;
20894;SDS011;10607;42.066;24.742;2023-06-14T13:10:24;13.32;;;11.02;;
20894;SDS011;10607;42.066;24.742;2023-06-14T13:12:49;11.40;;;9.57;;
20894;SDS011;10607;42.066;24.742;2023-06-14T13:15:14;14.57;;;10.32;;
20894;SDS011;10607;42.066;24.742;2023-06-14T13:17:40;13.57;;;10.60;;
20894;SDS011;10607;42.066;24.742;2023-06-14T13:20:07;12.13;;;10.82;;
20894;SDS011;10607;42.066;24.742;2023-06-14T13:22:33;11.50;;;10.35;;
20894;SDS011;10607;42.066;24.742;2023-06-14T13:24:58;14.13;;;9.75;;
20894;SDS011;10607;42.066;24.742;2023-06-14T13:27:25;11.77;;;10.10;;
20894;SDS011;10607;42.066;24.742;2023-06-14T13:29:51;12.32;;;8.77;;
20894;SDS011;10607;42.066;24.742;2023-06-14T13:32:16;15.93;;;9.90;;
20894;SDS011;10607;42.066;24.742;2023-06-14T13:34:41;16.15;;;9.95;;
20894;SDS011;10607;42.066;24.742;2023-06-14T13:37:07;15.55;;;10.35;;
20894;SDS011;10607;42.066;24.742;2023-06-14T13:39:32;12.45;;;9.50;;
20894;SDS011;10607;42.066;24.742;2023-06-14T13:41:57;14.07;;;9.07;;
20894;SDS011;10607;42.066;24.742;2023-06-14T13:44:22;9.50;;;8.38;;
20894;SDS011;10607;42.066;24.742;2023-06-14T13:46:48;11.98;;;8.55;;
20894;SDS011;10607;42.066;24.742;2023-06-14T13:49:13;9.15;;;8.20;;
20894;SDS011;10607;42.066;24.742;2023-06-14T13:51:38;15.15;;;8.27;;
20894;SDS011;10607;42.066;24.742;2023-06-14T13:54:04;11.35;;;8.80;;
20894;SDS011;10607;42.066;24.742;2023-06-14T13:56:29;11.38;;;8.15;;
20894;SDS011;10607;42.066;24.742;2023-06-14T13:58:55;9.82;;;8.02;;
20894;SDS011;10607;42.066;24.742;2023-06-14T14:01:21;17.50;;;8.57;;
20894;SDS011;10607;42.066;24.742;2023-06-14T14:03:48;14.15;;;8.40;;
20894;SDS011;10607;42.066;24.742;2023-06-14T14:06:14;10.82;;;7.60;;
20894;SDS011;10607;42.066;24.742;2023-06-14T14:08:40;9.50;;;7.05;;
20894;SDS011;10607;42.066;24.742;2023-06-14T14:11:05;8.35;;;7.22;;
20894;SDS011;10607;42.066;24.742;2023-06-14T14:13:31;10.32;;;7.40;;
20894;SDS011;10607;42.066;24.742;2023-06-14T14:15:56;9.57;;;7.50;;
20894;SDS011;10607;42.066;24.742;2023-06-14T14:18:22;10.85;;;7.20;;
20894;SDS011;10607;42.066;24.742;2023-06-14T14:20:47;11.02;;;6.93;;
20894;SDS011;10607;42.066;24.742;2023-06-14T14:23:13;10.57;;;7.05;;
20894;SDS011;10607;42.066;24.742;2023-06-14T14:25:38;10.88;;;7.15;;
20894;SDS011;10607;42.066;24.742;2023-06-14T14:28:03;9.45;;;6.28;;
20894;SDS011;10607;42.066;24.742;2023-06-14T14:30:29;11.60;;;7.72;;